createdAt,value
2023-03-16T00:02:03.514Z,14.60
2023-03-16T00:04:30.753Z,18.55
2023-03-16T00:06:57.914Z,15.52
2023-03-16T00:09:31.399Z,17.67
2023-03-16T00:11:58.984Z,18.65
2023-03-16T00:14:26.324Z,20.15
2023-03-16T00:16:53.407Z,14.77
2023-03-16T00:19:23.074Z,11.60
2023-03-16T00:21:51.188Z,15.82
2023-03-16T00:24:19.371Z,15.35
2023-03-16T00:26:46.923Z,22.17
2023-03-16T00:29:13.908Z,18.13
2023-03-16T00:31:43.977Z,15.85
2023-03-16T00:34:15.345Z,13.75
2023-03-16T00:36:42.551Z,16.05
2023-03-16T00:39:11.626Z,22.07
2023-03-16T00:41:38.291Z,10.48
2023-03-16T00:44:05.782Z,13.63
2023-03-16T00:46:32.931Z,13.90
2023-03-16T00:48:59.600Z,12.30
2023-03-16T00:51:26.312Z,10.73
2023-03-16T00:53:52.956Z,16.47
2023-03-16T00:56:19.743Z,11.50
2023-03-16T00:58:46.488Z,13.10
2023-03-16T01:01:18.973Z,11.63
2023-03-16T01:03:46.397Z,13.80
2023-03-16T01:06:17.014Z,13.67
2023-03-16T01:08:44.270Z,18.53
2023-03-16T01:11:13.544Z,20.73
2023-03-16T01:13:40.125Z,11.93
2023-03-16T01:16:08.607Z,12.90
2023-03-16T01:18:35.356Z,19.67
2023-03-16T01:21:03.854Z,10.85
2023-03-16T01:23:33.617Z,14.00
2023-03-16T01:26:00.509Z,13.30
2023-03-16T01:28:31.779Z,11.63
2023-03-16T01:31:02.237Z,11.20
2023-03-16T01:33:30.062Z,13.17
2023-03-16T01:35:59.378Z,12.60
2023-03-16T01:38:29.878Z,11.77
2023-03-16T01:40:56.947Z,12.57
2023-03-16T01:43:26.676Z,13.53
2023-03-16T01:46:04.819Z,10.35
2023-03-16T01:49:02.237Z,15.70
2023-03-16T01:51:37.984Z,11.18
2023-03-16T01:54:26.473Z,13.68
2023-03-16T01:57:05.981Z,11.40
2023-03-16T01:59:44.286Z,13.77
2023-03-16T02:02:11.869Z,15.17
2023-03-16T02:04:49.218Z,15.23
2023-03-16T02:07:19.806Z,14.02
2023-03-16T02:09:49.190Z,10.07
2023-03-16T02:12:19.368Z,11.45
2023-03-16T02:14:51.459Z,14.35
2023-03-16T02:17:22.103Z,10.10
2023-03-16T02:20:27.073Z,9.88
2023-03-16T02:22:54.542Z,10.20
2023-03-16T02:25:24.648Z,13.95
2023-03-16T02:28:06.817Z,9.32
2023-03-16T02:30:37.417Z,14.07
2023-03-16T02:33:05.267Z,10.50
2023-03-16T02:35:32.411Z,14.32
2023-03-16T02:38:00.398Z,10.63
2023-03-16T02:40:33.695Z,14.13
2023-03-16T02:43:08.192Z,9.60
2023-03-16T02:45:42.516Z,12.65
2023-03-16T02:48:15.042Z,10.15
2023-03-16T02:50:50.324Z,15.95
2023-03-16T02:53:17.172Z,8.05
2023-03-16T02:55:45.022Z,8.15
2023-03-16T02:58:12.377Z,12.43
2023-03-16T03:00:39.118Z,12.82
2023-03-16T03:03:06.415Z,6.53
2023-03-16T03:05:33.128Z,10.85
2023-03-16T03:07:59.818Z,6.93
2023-03-16T03:10:27.206Z,12.80
2023-03-16T03:12:54.271Z,5.60
2023-03-16T03:15:21.829Z,9.98
2023-03-16T03:18:04.054Z,12.15
2023-03-16T03:20:31.965Z,7.03
2023-03-16T03:22:58.608Z,8.20
2023-03-16T03:25:25.337Z,10.98
2023-03-16T03:27:54.821Z,7.13
2023-03-16T03:30:24.856Z,7.07
2023-03-16T03:32:52.530Z,8.45
2023-03-16T03:35:21.345Z,9.98
2023-03-16T03:37:48.222Z,7.93
2023-03-16T03:40:17.331Z,4.50
2023-03-16T03:42:47.131Z,7.25
2023-03-16T03:45:14.378Z,8.13
2023-03-16T03:47:41.953Z,8.60
2023-03-16T03:50:13.776Z,9.23
2023-03-16T03:52:51.553Z,5.15
2023-03-16T03:55:18.258Z,8.30
2023-03-16T03:57:44.989Z,7.70
2023-03-16T04:00:13.798Z,5.97
2023-03-16T04:02:41.980Z,8.13
2023-03-16T04:05:17.419Z,12.18
2023-03-16T04:07:45.616Z,6.53
2023-03-16T04:10:13.822Z,5.68
2023-03-16T04:12:43.217Z,6.30
2023-03-16T04:15:12.647Z,9.20
2023-03-16T04:18:03.618Z,6.97
2023-03-16T04:20:30.618Z,5.82
2023-03-16T04:23:00.660Z,5.20
2023-03-16T04:25:30.514Z,7.00
2023-03-16T04:27:58.665Z,5.80
2023-03-16T04:30:30.882Z,6.55
2023-03-16T04:33:07.440Z,5.97
2023-03-16T04:35:34.165Z,5.47
2023-03-16T04:38:02.280Z,4.40
2023-03-16T04:40:38.571Z,8.77
2023-03-16T04:43:15.932Z,4.13
2023-03-16T04:45:43.126Z,5.57
2023-03-16T04:48:10.486Z,8.18
2023-03-16T04:50:38.129Z,5.78
2023-03-16T04:53:04.957Z,8.32
2023-03-16T04:55:32.447Z,7.53
2023-03-16T04:57:59.331Z,7.30
2023-03-16T05:00:28.546Z,8.10
2023-03-16T05:03:07.808Z,9.48
2023-03-16T05:05:34.993Z,5.55
2023-03-16T05:08:01.766Z,8.00
2023-03-16T05:10:30.588Z,9.63
2023-03-16T05:12:57.586Z,5.40
2023-03-16T05:15:24.198Z,5.22
2023-03-16T05:18:01.958Z,6.68
2023-03-16T05:20:30.160Z,4.15
2023-03-16T05:22:59.838Z,7.03
2023-03-16T05:25:29.860Z,9.88
2023-03-16T05:27:59.304Z,3.47
2023-03-16T05:30:43.056Z,6.28
2023-03-16T05:33:13.373Z,8.10
2023-03-16T05:35:40.699Z,5.28
2023-03-16T05:38:10.948Z,6.32
2023-03-16T05:40:40.172Z,4.78
2023-03-16T05:43:39.508Z,5.78
2023-03-16T05:46:06.250Z,14.32
2023-03-16T05:48:35.736Z,8.20
2023-03-16T05:51:05.976Z,9.40
2023-03-16T05:53:33.173Z,8.25
2023-03-16T05:56:07.298Z,8.77
2023-03-16T05:58:40.182Z,7.55
2023-03-16T06:01:12.753Z,7.00
2023-03-16T06:03:41.982Z,6.78
2023-03-16T06:06:12.606Z,6.57
2023-03-16T06:08:50.668Z,7.45
2023-03-16T06:11:19.063Z,4.90
2023-03-16T06:13:46.489Z,9.52
2023-03-16T06:16:14.372Z,9.70
2023-03-16T06:18:41.272Z,10.43
2023-03-16T06:21:08.799Z,4.65
2023-03-16T06:23:36.212Z,5.28
2023-03-16T06:26:05.222Z,5.03
2023-03-16T06:28:34.543Z,8.25
2023-03-16T06:31:01.184Z,5.28
2023-03-16T06:33:32.123Z,8.52
2023-03-16T06:35:58.867Z,7.55
2023-03-16T06:38:33.707Z,6.40
2023-03-16T06:41:07.241Z,5.30
2023-03-16T06:43:34.995Z,5.93
2023-03-16T06:46:03.130Z,7.15
2023-03-16T06:48:30.116Z,11.02
2023-03-16T06:50:57.510Z,8.80
2023-03-16T06:53:27.395Z,5.50
2023-03-16T06:55:55.932Z,8.35
2023-03-16T06:58:22.935Z,6.00
2023-03-16T07:00:50.050Z,8.82
2023-03-16T07:03:17.275Z,9.75
2023-03-16T07:05:49.329Z,6.03
2023-03-16T07:08:16.133Z,7.32
2023-03-16T07:10:42.848Z,9.45
2023-03-16T07:13:09.502Z,5.93
2023-03-16T07:15:36.262Z,6.90
2023-03-16T07:18:04.887Z,7.78
2023-03-16T07:20:33.041Z,8.40
2023-03-16T07:23:02.765Z,7.90
2023-03-16T07:25:29.762Z,7.00
2023-03-16T07:27:56.434Z,6.15
2023-03-16T07:30:29.869Z,14.18
2023-03-16T07:32:56.958Z,10.25
2023-03-16T07:35:26.549Z,8.35
2023-03-16T07:37:55.419Z,8.65
2023-03-16T07:40:24.149Z,7.13
2023-03-16T07:42:51.208Z,7.35
2023-03-16T07:45:33.364Z,11.30
2023-03-16T07:48:01.809Z,5.45
2023-03-16T07:50:39.448Z,4.07
2023-03-16T07:53:06.159Z,3.92
2023-03-16T07:55:36.904Z,4.38
2023-03-16T07:58:06.106Z,4.45
2023-03-16T08:00:35.133Z,6.18
2023-03-16T08:03:02.121Z,7.75
2023-03-16T08:05:29.985Z,5.38
2023-03-16T08:08:01.749Z,5.53
2023-03-16T08:10:30.003Z,5.50
2023-03-16T08:13:04.891Z,4.95
2023-03-16T08:15:35.381Z,4.65
2023-03-16T08:18:14.966Z,4.97
2023-03-16T08:20:42.111Z,4.38
2023-03-16T08:23:08.907Z,9.10
2023-03-16T08:25:40.175Z,6.72
2023-03-16T08:28:12.634Z,3.65
2023-03-16T08:30:50.996Z,3.88
2023-03-16T08:33:44.034Z,3.80
2023-03-16T08:36:13.545Z,4.43
2023-03-16T08:38:44.130Z,7.20
2023-03-16T08:41:12.546Z,8.60
2023-03-16T08:43:40.496Z,3.55
2023-03-16T08:46:07.208Z,3.75
2023-03-16T08:48:45.169Z,3.45
2023-03-16T08:51:12.447Z,4.85
2023-03-16T08:53:39.263Z,3.78
2023-03-16T08:56:07.992Z,4.88
2023-03-16T08:58:35.478Z,3.40
2023-03-16T09:01:05.599Z,4.80
2023-03-16T09:03:33.323Z,4.85
2023-03-16T09:06:06.324Z,9.70
2023-03-16T09:08:33.539Z,6.57
2023-03-16T09:11:01.508Z,3.15
2023-03-16T09:13:28.812Z,3.50
2023-03-16T09:15:55.980Z,7.57
2023-03-16T09:18:24.125Z,3.55
2023-03-16T09:20:51.151Z,6.28
2023-03-16T09:23:19.369Z,3.13
2023-03-16T09:25:46.529Z,4.97
2023-03-16T09:28:13.312Z,5.93
2023-03-16T09:30:40.020Z,4.53
2023-03-16T09:33:06.724Z,7.93
2023-03-16T09:35:35.122Z,5.40
2023-03-16T09:38:06.000Z,3.55
2023-03-16T09:40:34.301Z,5.15
2023-03-16T09:43:11.033Z,4.35
2023-03-16T09:45:59.759Z,3.53
2023-03-16T09:48:27.364Z,5.97
2023-03-16T09:50:54.927Z,2.97
2023-03-16T09:53:29.394Z,3.55
2023-03-16T09:56:01.328Z,9.30
2023-03-16T09:58:28.290Z,6.00
2023-03-16T10:01:35.762Z,4.28
2023-03-16T10:04:21.770Z,4.00
2023-03-16T10:06:53.380Z,2.95
2023-03-16T10:09:35.721Z,3.58
2023-03-16T10:12:04.658Z,6.38
2023-03-16T10:14:47.522Z,5.07
2023-03-16T10:17:19.402Z,2.83
2023-03-16T10:20:00.670Z,3.35
2023-03-16T10:22:32.145Z,3.28
2023-03-16T10:25:22.660Z,3.75
2023-03-16T10:27:49.845Z,4.03
2023-03-16T10:30:29.929Z,4.53
2023-03-16T10:33:01.676Z,3.45
2023-03-16T10:35:45.735Z,3.08
2023-03-16T10:38:27.609Z,4.00
2023-03-16T10:40:54.615Z,4.57
2023-03-16T10:43:21.290Z,3.13
2023-03-16T10:45:48.025Z,5.43
2023-03-16T10:48:18.952Z,4.05
2023-03-16T10:50:51.932Z,4.68
2023-03-16T10:53:23.663Z,7.93
2023-03-16T10:55:53.103Z,3.83
2023-03-16T10:58:25.287Z,3.05
2023-03-16T11:00:53.583Z,5.22
2023-03-16T11:03:41.556Z,2.08
2023-03-16T11:06:20.407Z,3.42
2023-03-16T11:08:48.680Z,5.05
2023-03-16T11:11:19.190Z,5.15
2023-03-16T11:13:47.541Z,4.43
2023-03-16T11:16:25.956Z,3.55
2023-03-16T11:19:15.579Z,3.60
2023-03-16T11:21:51.549Z,2.75
2023-03-16T11:24:24.370Z,4.60
2023-03-16T11:26:57.191Z,3.10
2023-03-16T11:29:28.967Z,5.60
2023-03-16T11:32:00.774Z,7.85
2023-03-16T11:34:29.461Z,5.15
2023-03-16T11:37:30.741Z,7.45
2023-03-16T11:40:19.507Z,4.45
2023-03-16T11:43:19.352Z,2.70
2023-03-16T11:45:54.875Z,3.33
2023-03-16T11:48:36.997Z,4.60
2023-03-16T11:51:22.677Z,4.70
2023-03-16T11:54:17.562Z,3.67
2023-03-16T11:56:48.361Z,3.58
2023-03-16T11:59:24.040Z,5.63
2023-03-16T12:02:02.768Z,4.22
2023-03-16T12:04:55.297Z,4.60
2023-03-16T12:07:57.109Z,3.17
2023-03-16T12:10:26.574Z,4.68
2023-03-16T12:13:14.528Z,4.25
2023-03-16T12:15:54.905Z,2.22
2023-03-16T12:18:23.274Z,3.08
2023-03-16T12:21:03.126Z,5.95
2023-03-16T12:23:55.499Z,4.38
2023-03-16T12:26:24.931Z,3.97
2023-03-16T12:28:53.026Z,5.80
2023-03-16T12:31:54.124Z,2.22
2023-03-16T12:34:26.995Z,1.70
2023-03-16T12:37:10.955Z,4.20
2023-03-16T12:39:40.623Z,1.98
2023-03-16T12:42:21.661Z,3.58
2023-03-16T12:44:55.304Z,5.38
2023-03-16T12:47:27.288Z,4.43
2023-03-16T12:49:54.297Z,4.32
2023-03-16T12:52:20.967Z,2.97
2023-03-16T12:55:07.182Z,3.75
2023-03-16T12:57:33.860Z,5.03
2023-03-16T13:00:01.552Z,4.72
2023-03-16T13:02:32.892Z,1.63
2023-03-16T13:05:28.600Z,4.10
2023-03-16T13:08:13.724Z,3.00
2023-03-16T13:10:41.138Z,5.57
2023-03-16T13:13:16.104Z,2.10
2023-03-16T13:15:45.148Z,5.95
2023-03-16T13:18:14.947Z,6.63
2023-03-16T13:20:55.714Z,2.28
2023-03-16T13:23:30.143Z,2.85
2023-03-16T13:26:12.423Z,3.20
2023-03-16T13:28:39.439Z,2.83
2023-03-16T13:31:37.174Z,5.10
2023-03-16T13:34:06.798Z,3.78
2023-03-16T13:36:34.697Z,2.85
2023-03-16T13:39:33.714Z,5.32
2023-03-16T13:42:09.721Z,2.40
2023-03-16T13:44:41.171Z,5.32
2023-03-16T13:47:08.491Z,4.50
2023-03-16T13:49:47.398Z,3.70
2023-03-16T13:52:22.325Z,3.33
2023-03-16T13:54:50.074Z,2.25
2023-03-16T13:57:20.473Z,2.60
2023-03-16T13:59:47.168Z,2.45
2023-03-16T14:02:18.995Z,2.35
2023-03-16T14:04:45.759Z,3.85
2023-03-16T14:07:18.742Z,4.15
2023-03-16T14:09:46.763Z,2.55
2023-03-16T14:12:14.982Z,3.08
2023-03-16T14:14:42.146Z,4.22
2023-03-16T14:17:12.620Z,2.78
2023-03-16T14:19:48.747Z,7.13
2023-03-16T14:22:31.516Z,3.15
2023-03-16T14:25:00.771Z,3.72
2023-03-16T14:27:43.123Z,4.53
2023-03-16T14:30:18.665Z,3.63
2023-03-16T14:32:56.727Z,2.60
2023-03-16T14:35:27.661Z,1.52
2023-03-16T14:37:56.641Z,1.60
2023-03-16T14:40:26.185Z,2.33
2023-03-16T14:42:54.094Z,4.97
2023-03-16T14:45:22.350Z,3.38
2023-03-16T14:47:49.943Z,3.80
2023-03-16T14:50:27.690Z,6.07
2023-03-16T14:52:55.748Z,4.18
2023-03-16T14:55:25.873Z,3.60
2023-03-16T14:57:53.301Z,2.17
2023-03-16T15:00:22.226Z,1.48
2023-03-16T15:02:57.731Z,2.95
2023-03-16T15:05:34.005Z,2.63
2023-03-16T15:08:03.743Z,2.42
2023-03-16T15:10:34.462Z,3.97
2023-03-16T15:13:06.543Z,2.00
2023-03-16T15:15:33.881Z,5.13
2023-03-16T15:18:00.609Z,1.98
2023-03-16T15:20:34.808Z,3.50
2023-03-16T15:23:02.051Z,3.53
2023-03-16T15:25:38.678Z,2.00
2023-03-16T15:28:19.850Z,3.63
2023-03-16T15:30:49.075Z,5.95
2023-03-16T15:33:17.132Z,2.38
2023-03-16T15:35:44.545Z,2.47
2023-03-16T15:38:20.850Z,3.30
2023-03-16T15:40:48.139Z,3.20
2023-03-16T15:43:16.967Z,4.00
2023-03-16T15:45:44.273Z,2.15
2023-03-16T15:48:11.910Z,4.13
2023-03-16T15:50:40.550Z,2.55
2023-03-16T15:53:29.603Z,4.97
2023-03-16T15:56:01.302Z,5.28
2023-03-16T15:58:28.042Z,4.35
2023-03-16T16:00:57.143Z,5.20
2023-03-16T16:03:24.987Z,3.83
2023-03-16T16:05:52.027Z,4.00
2023-03-16T16:08:27.074Z,4.03
2023-03-16T16:10:54.655Z,2.53
2023-03-16T16:13:37.539Z,3.65
2023-03-16T16:16:12.401Z,2.90
2023-03-16T16:18:39.742Z,1.90
2023-03-16T16:21:10.043Z,3.80
2023-03-16T16:23:37.635Z,1.90
2023-03-16T16:26:17.921Z,5.20
2023-03-16T16:28:44.770Z,2.17
2023-03-16T16:31:13.610Z,5.90
2023-03-16T16:33:40.686Z,2.15
2023-03-16T16:36:13.969Z,2.92
2023-03-16T16:38:40.776Z,3.28
2023-03-16T16:41:09.109Z,4.20
2023-03-16T16:43:39.640Z,3.92
2023-03-16T16:46:12.305Z,5.00
2023-03-16T16:48:44.490Z,4.75
2023-03-16T16:51:23.228Z,4.07
2023-03-16T16:53:50.969Z,3.05
2023-03-16T16:56:21.953Z,4.65
2023-03-16T16:58:48.639Z,2.15
2023-03-16T17:01:23.666Z,3.85
2023-03-16T17:03:50.535Z,13.10
2023-03-16T17:06:19.466Z,32.35
2023-03-16T17:08:47.112Z,22.30
2023-03-16T17:11:26.482Z,12.93
2023-03-16T17:13:54.428Z,11.93
2023-03-16T17:16:28.820Z,8.85
2023-03-16T17:18:55.658Z,9.43
2023-03-16T17:21:25.345Z,5.78
2023-03-16T17:23:52.898Z,7.13
2023-03-16T17:26:21.709Z,6.43
2023-03-16T17:28:52.968Z,3.30
2023-03-16T17:31:22.811Z,5.78
2023-03-16T17:33:52.362Z,4.85
2023-03-16T17:36:20.932Z,2.05
2023-03-16T17:38:48.339Z,4.95
2023-03-16T17:41:23.052Z,4.63
2023-03-16T17:43:51.085Z,2.88
2023-03-16T17:46:20.763Z,5.35
2023-03-16T17:48:48.298Z,8.40
2023-03-16T17:51:15.327Z,5.57
2023-03-16T17:53:43.279Z,6.65
2023-03-16T17:56:21.482Z,5.50
2023-03-16T17:58:51.211Z,5.97
2023-03-16T18:01:26.615Z,4.88
2023-03-16T18:04:05.220Z,3.42
2023-03-16T18:06:32.444Z,9.38
2023-03-16T18:09:04.093Z,11.27
2023-03-16T18:11:36.062Z,10.73
2023-03-16T18:14:07.309Z,9.25
2023-03-16T18:16:34.112Z,5.68
2023-03-16T18:19:05.784Z,4.10
2023-03-16T18:21:33.593Z,3.70
2023-03-16T18:24:01.386Z,5.78
2023-03-16T18:26:32.886Z,9.57
2023-03-16T18:29:00.988Z,5.22
2023-03-16T18:31:28.234Z,4.47
2023-03-16T18:34:03.705Z,4.43
2023-03-16T18:36:38.006Z,4.20
2023-03-16T18:39:07.032Z,3.80
2023-03-16T18:41:34.859Z,4.80
2023-03-16T18:44:18.431Z,4.00
2023-03-16T18:46:46.350Z,7.95
2023-03-16T18:49:27.330Z,5.75
2023-03-16T18:51:54.523Z,4.53
2023-03-16T18:54:24.436Z,4.80
2023-03-16T18:56:51.667Z,6.55
2023-03-16T18:59:18.726Z,5.50
2023-03-16T19:01:46.505Z,5.28
2023-03-16T19:04:25.499Z,5.85
2023-03-16T19:06:55.134Z,6.75
2023-03-16T19:09:30.099Z,6.45
2023-03-16T19:12:00.520Z,6.63
2023-03-16T19:14:33.207Z,7.25
2023-03-16T19:17:00.046Z,8.52
2023-03-16T19:19:27.446Z,7.50
2023-03-16T19:21:57.292Z,11.85
2023-03-16T19:24:30.595Z,8.38
2023-03-16T19:26:57.814Z,5.78
2023-03-16T19:29:30.694Z,4.28
2023-03-16T19:31:58.329Z,7.00
2023-03-16T19:34:25.290Z,6.10
2023-03-16T19:36:52.545Z,4.90
2023-03-16T19:39:19.641Z,6.45
2023-03-16T19:41:51.282Z,5.55
2023-03-16T19:44:22.390Z,5.13
2023-03-16T19:46:49.872Z,4.43
2023-03-16T19:49:21.072Z,8.02
2023-03-16T19:51:50.745Z,5.93
2023-03-16T19:54:31.837Z,6.68
2023-03-16T19:57:03.874Z,4.78
2023-03-16T19:59:33.573Z,6.38
2023-03-16T20:02:00.391Z,4.47
2023-03-16T20:04:29.392Z,6.03
2023-03-16T20:06:56.129Z,5.80
2023-03-16T20:09:23.007Z,4.03
2023-03-16T20:11:53.940Z,8.23
2023-03-16T20:14:27.120Z,4.32
2023-03-16T20:16:53.829Z,3.85
2023-03-16T20:19:22.210Z,6.00
2023-03-16T20:21:49.321Z,7.25
2023-03-16T20:24:17.981Z,4.95
2023-03-16T20:26:46.358Z,5.82
2023-03-16T20:29:31.950Z,6.70
2023-03-16T20:31:59.502Z,4.13
2023-03-16T20:34:31.354Z,4.57
2023-03-16T20:36:59.074Z,4.72
2023-03-16T20:39:26.157Z,3.90
2023-03-16T20:41:54.610Z,4.97
2023-03-16T20:44:25.292Z,3.92
2023-03-16T20:46:52.339Z,4.47
2023-03-16T20:49:21.957Z,3.88
2023-03-16T20:51:49.770Z,5.30
2023-03-16T20:54:16.898Z,5.70
2023-03-16T20:56:43.743Z,6.63
2023-03-16T20:59:17.617Z,5.90
2023-03-16T21:01:45.581Z,6.68
2023-03-16T21:04:27.965Z,4.28
2023-03-16T21:06:56.033Z,6.05
2023-03-16T21:09:22.988Z,10.25
2023-03-16T21:11:50.936Z,4.47
2023-03-16T21:14:22.013Z,4.28
2023-03-16T21:16:49.775Z,4.85
2023-03-16T21:19:19.002Z,5.65
2023-03-16T21:21:46.514Z,5.90
2023-03-16T21:24:13.188Z,4.88
2023-03-16T21:26:41.102Z,6.55
2023-03-16T21:29:14.552Z,5.95
2023-03-16T21:31:41.427Z,3.55
2023-03-16T21:34:26.433Z,3.95
2023-03-16T21:36:53.582Z,5.32
2023-03-16T21:39:23.753Z,3.90
2023-03-16T21:41:50.750Z,4.57
2023-03-16T21:44:18.674Z,3.65
2023-03-16T21:46:47.528Z,5.30
2023-03-16T21:49:14.662Z,3.97
2023-03-16T21:51:43.086Z,7.05
2023-03-16T21:54:14.570Z,5.97
2023-03-16T21:56:42.277Z,5.10
2023-03-16T21:59:09.760Z,4.25
2023-03-16T22:01:42.802Z,6.63
2023-03-16T22:04:17.815Z,4.13
2023-03-16T22:06:45.388Z,3.50
2023-03-16T22:09:20.365Z,3.20
2023-03-16T22:11:47.353Z,5.43
2023-03-16T22:14:14.023Z,5.45
2023-03-16T22:16:41.159Z,6.80
2023-03-16T22:19:12.100Z,6.32
2023-03-16T22:21:41.924Z,8.40
2023-03-16T22:24:19.831Z,4.95
2023-03-16T22:26:48.956Z,6.05
2023-03-16T22:29:30.725Z,4.13
2023-03-16T22:31:59.792Z,4.68
2023-03-16T22:34:31.427Z,8.00
2023-03-16T22:36:58.525Z,4.32
2023-03-16T22:39:25.356Z,4.65
2023-03-16T22:41:52.419Z,2.47
2023-03-16T22:44:23.053Z,4.88
2023-03-16T22:46:51.444Z,5.88
2023-03-16T22:49:20.926Z,5.88
2023-03-16T22:51:47.901Z,4.50
2023-03-16T22:54:18.029Z,5.82
2023-03-16T22:56:45.560Z,3.15
2023-03-16T22:59:16.612Z,4.95
2023-03-16T23:01:45.210Z,5.63
2023-03-16T23:04:22.117Z,6.07
2023-03-16T23:06:54.311Z,5.60
2023-03-16T23:09:21.888Z,4.70
2023-03-16T23:11:54.104Z,6.13
2023-03-16T23:14:23.249Z,6.93
2023-03-16T23:16:52.862Z,7.68
2023-03-16T23:19:26.555Z,6.13
2023-03-16T23:21:55.207Z,9.25
2023-03-16T23:24:22.122Z,5.32
2023-03-16T23:26:50.337Z,5.75
2023-03-16T23:29:16.995Z,5.00
2023-03-16T23:31:43.596Z,7.65
2023-03-16T23:34:15.614Z,5.32
2023-03-16T23:36:43.269Z,9.68
2023-03-16T23:39:10.673Z,4.95
2023-03-16T23:41:41.865Z,6.20
2023-03-16T23:44:15.858Z,5.00
2023-03-16T23:46:52.698Z,8.95
2023-03-16T23:49:33.276Z,4.18
2023-03-16T23:52:01.454Z,5.70
2023-03-16T23:54:30.977Z,5.22
2023-03-16T23:56:57.966Z,5.65
2023-03-16T23:59:25.710Z,4.00
